Aeroporto :
LOGIN :

Iscrizione | Disclaimer

   EN    FR    IT 

 










Sommario :    VFR   VFR Marginale   IFR   IFR Intensivo   IFR Molto Intensivo
Visibilità : 
Base nubi : 
>= 8 km
>= 3000ft
5 / 8 km
1000 / 3000 ft
1500m / 5 km
500 / 1000 ft
800 / 1500m
200 / 500 ft
< 800m
< 200 ft
Simboli :   Temporali  Nebbia  Neve Forte  Precipitazioni Forti  Vento > 20 kt
SIGMETs :   Varie  Temporali  Ghiacco  Turbolenza  Onda orograficha  Ceneri Vulcaniche






- Altitudine del aeroporto : 32 ft
- Codice IATA : NRK


ESSP - Norrköping

ULTIMO METAR :
  • 121850Z 18005KT 6000 DZ BKN008 OVC030 02/02 Q0995 R27/290095

METARs OBSOLETI :
  • 121820Z 16005KT 8000 BKN009 BKN030 02/02 Q0995 R27/290095
  • 121750Z 16005KT 7000 BKN008 OVC033 02/02 Q0995 R27/290095
  • 121720Z 15007KT 8000 BKN009 OVC035 02/02 Q0995 REDZ R27/290095
  • 121650Z 15007KT 8000 BKN010 OVC037 03/03 Q0995 R27/290095
  • 121620Z 16008KT 7000 OVC008 03/03 Q0995 R27/290095
  • 121550Z 16008KT 8000 -DZ OVC008 03/03 Q0995 R27/290095

TAF TAF ESSP
Valido dal 12 a 18 ore il 12 a 22 ore UTC


121730Z 1218/1222 17005KT 8000 -DZ BKN010
PROB40 1218/1222 4000 RA BKN007



MetMap, La meteo Aeronautica in un colpo d'occhio ! - Copyright ORBIFLY Dicembre 2007 - Disclaimer

ORBIFLY MET'MAP TEAM :

Programmazione e sviluppo : Alexandra Zaïnal
Concezione : Baudouin d'Aumeries
Aiuto per la programmazione : Marc-Olivier Méhu
Supporto tecnico e logistico : Manuel Goepfert
Aiuto per la traduzione : Arnaldo La Scala

Contatto : metmap@orbifly.com




FONTI E CREDITI :

   NOAA